createdAt,value
2024-04-18T00:00:29.554Z,42.54
2024-04-18T00:01:29.499Z,42.70
2024-04-18T00:02:29.460Z,44.31
2024-04-18T00:03:29.541Z,47.70
2024-04-18T00:04:29.620Z,42.86
2024-04-18T00:05:29.463Z,43.51
2024-04-18T00:06:29.482Z,42.54
2024-04-18T00:07:29.425Z,42.70
2024-04-18T00:08:29.396Z,42.86
2024-04-18T00:09:29.418Z,42.38
2024-04-18T00:10:29.397Z,43.34
2024-04-18T00:11:29.377Z,42.54
2024-04-18T00:12:29.371Z,43.18
2024-04-18T00:13:29.350Z,42.86
2024-04-18T00:14:29.342Z,43.51
2024-04-18T00:15:29.406Z,42.70
2024-04-18T00:16:29.455Z,42.38
2024-04-18T00:17:29.380Z,42.54
2024-04-18T00:18:29.341Z,46.08
2024-04-18T00:19:29.292Z,42.86
2024-04-18T00:20:29.280Z,43.99
2024-04-18T00:21:29.288Z,48.98
2024-04-18T00:22:29.248Z,51.56
2024-04-18T00:23:29.274Z,53.33
2024-04-18T00:24:29.344Z,46.89
2024-04-18T00:25:29.225Z,48.82
2024-04-18T00:26:29.221Z,46.25
2024-04-18T00:27:29.222Z,43.99
2024-04-18T00:28:29.204Z,50.76
2024-04-18T00:29:29.179Z,48.50
2024-04-18T00:30:29.197Z,45.28
2024-04-18T00:31:29.197Z,42.54
2024-04-18T00:32:29.179Z,43.02
2024-04-18T00:33:29.203Z,46.08
2024-04-18T00:34:29.132Z,42.38
2024-04-18T00:35:29.128Z,43.18
2024-04-18T00:36:29.173Z,43.18
2024-04-18T00:37:29.115Z,42.22
2024-04-18T00:38:29.097Z,42.54
2024-04-18T00:39:29.106Z,49.47
2024-04-18T00:40:29.079Z,43.34
2024-04-18T00:41:29.052Z,42.22
2024-04-18T00:42:29.094Z,44.63
2024-04-18T00:43:29.042Z,49.15
2024-04-18T00:44:29.023Z,49.95
2024-04-18T00:45:29.034Z,45.28
2024-04-18T00:46:29.004Z,46.73
2024-04-18T00:47:29.066Z,52.21
2024-04-18T00:48:29.059Z,44.63
2024-04-18T00:49:28.999Z,44.47
2024-04-18T00:50:28.977Z,44.15
2024-04-18T00:51:29.013Z,46.25
2024-04-18T00:52:28.971Z,51.24
2024-04-18T00:53:28.939Z,43.67
2024-04-18T00:54:28.936Z,43.51
2024-04-18T00:55:28.911Z,43.99
2024-04-18T00:56:28.913Z,42.86
2024-04-18T00:57:28.906Z,44.47
2024-04-18T00:58:28.882Z,52.53
2024-04-18T00:59:28.877Z,47.86
2024-04-18T01:00:28.903Z,43.18
2024-04-18T01:01:28.959Z,44.31
2024-04-18T01:02:28.852Z,44.31
2024-04-18T01:03:28.927Z,44.31
2024-04-18T01:04:28.931Z,44.96
2024-04-18T01:05:28.825Z,54.79
2024-04-18T01:06:28.851Z,43.02
2024-04-18T01:07:28.811Z,42.38
2024-04-18T01:08:28.785Z,42.70
2024-04-18T01:09:28.782Z,42.54
2024-04-18T01:10:28.777Z,42.86
2024-04-18T01:11:28.758Z,44.79
2024-04-18T01:12:28.868Z,43.99
2024-04-18T01:13:28.716Z,43.02
2024-04-18T01:14:28.738Z,44.15
2024-04-18T01:15:28.734Z,50.11
2024-04-18T01:16:28.701Z,43.18
2024-04-18T01:17:28.758Z,44.15
2024-04-18T01:18:28.726Z,44.96
2024-04-18T01:19:28.670Z,43.67
2024-04-18T01:20:28.676Z,44.63
2024-04-18T01:21:28.707Z,43.83
2024-04-18T01:22:28.634Z,44.47
2024-04-18T01:23:28.624Z,44.15
2024-04-18T01:24:28.693Z,43.67
2024-04-18T01:25:28.606Z,44.15
2024-04-18T01:26:28.596Z,44.96
2024-04-18T01:27:28.615Z,45.60
2024-04-18T01:28:28.571Z,43.34
2024-04-18T01:29:28.573Z,43.18
2024-04-18T01:30:28.602Z,44.63
2024-04-18T01:31:28.547Z,43.67
2024-04-18T01:32:28.546Z,43.67
2024-04-18T01:33:28.692Z,45.28
2024-04-18T01:34:28.694Z,42.86
2024-04-18T01:35:28.506Z,43.34
2024-04-18T01:36:28.536Z,44.47
2024-04-18T01:37:28.475Z,43.99
2024-04-18T01:38:28.482Z,44.63
2024-04-18T01:39:28.508Z,44.63
2024-04-18T01:40:30.684Z,43.67
2024-04-18T01:41:28.437Z,43.67
2024-04-18T01:42:28.472Z,43.18
2024-04-18T01:43:28.445Z,43.67
2024-04-18T01:44:28.412Z,45.44
2024-04-18T01:45:28.468Z,43.51
2024-04-18T01:46:28.408Z,43.99
2024-04-18T01:47:28.471Z,43.18
2024-04-18T01:48:28.667Z,46.25
2024-04-18T01:49:28.381Z,43.67
2024-04-18T01:50:28.346Z,49.47
2024-04-18T01:51:28.336Z,43.83
2024-04-18T01:52:28.377Z,43.18
2024-04-18T01:53:28.306Z,43.18
2024-04-18T01:54:28.318Z,49.47
2024-04-18T01:55:28.303Z,45.92
2024-04-18T01:56:28.313Z,43.99
2024-04-18T01:57:28.327Z,45.28
2024-04-18T01:58:28.275Z,45.60
2024-04-18T01:59:28.241Z,51.40
2024-04-18T02:00:28.284Z,50.11
2024-04-18T02:01:28.317Z,44.96
2024-04-18T02:02:28.231Z,46.89
2024-04-18T02:03:28.253Z,44.79
2024-04-18T02:04:28.314Z,44.79
2024-04-18T02:05:28.182Z,47.53
2024-04-18T02:06:28.230Z,46.41
2024-04-18T02:07:28.179Z,44.96
2024-04-18T02:08:28.157Z,50.27
2024-04-18T02:09:28.189Z,46.57
2024-04-18T02:10:28.158Z,48.50
2024-04-18T02:11:28.133Z,44.79
2024-04-18T02:12:28.199Z,47.37
2024-04-18T02:13:28.119Z,48.82
2024-04-18T02:14:28.084Z,46.73
2024-04-18T02:15:28.226Z,47.21
2024-04-18T02:16:28.108Z,51.08
2024-04-18T02:17:28.110Z,49.79
2024-04-18T02:18:28.137Z,51.24
2024-04-18T02:19:28.074Z,50.43
2024-04-18T02:20:28.043Z,45.60
2024-04-18T02:21:28.046Z,44.15
2024-04-18T02:22:28.016Z,45.12
2024-04-18T02:23:27.996Z,45.28
2024-04-18T02:24:28.002Z,52.21
2024-04-18T02:25:28.032Z,50.43
2024-04-18T02:26:27.960Z,50.27
2024-04-18T02:27:27.995Z,45.12
2024-04-18T02:28:27.961Z,45.12
2024-04-18T02:29:27.950Z,48.34
2024-04-18T02:30:28.132Z,50.11
2024-04-18T02:31:27.908Z,46.73
2024-04-18T02:32:27.972Z,45.76
2024-04-18T02:33:27.918Z,47.05
2024-04-18T02:34:27.909Z,47.37
2024-04-18T02:35:27.859Z,51.56
2024-04-18T02:36:27.904Z,59.46
2024-04-18T02:37:27.846Z,47.37
2024-04-18T02:38:27.831Z,47.21
2024-04-18T02:39:27.861Z,50.27
2024-04-18T02:40:27.862Z,47.05
2024-04-18T02:41:27.814Z,45.60
2024-04-18T02:42:27.859Z,46.08
2024-04-18T02:43:27.803Z,45.92
2024-04-18T02:44:27.785Z,47.37
2024-04-18T02:45:27.817Z,48.02
2024-04-18T02:46:27.773Z,48.18
2024-04-18T02:47:27.918Z,46.57
2024-04-18T02:48:27.948Z,46.08
2024-04-18T02:49:27.743Z,46.57
2024-04-18T02:50:27.709Z,47.53
2024-04-18T02:51:27.725Z,47.86
2024-04-18T02:52:27.720Z,48.34
2024-04-18T02:53:27.685Z,46.73
2024-04-18T02:54:27.699Z,48.34
2024-04-18T02:55:27.683Z,48.02
2024-04-18T02:56:27.646Z,54.79
2024-04-18T02:57:27.726Z,47.86
2024-04-18T02:58:27.649Z,51.72
2024-04-18T02:59:27.612Z,53.17
2024-04-18T03:00:27.679Z,47.05
2024-04-18T03:01:27.648Z,48.50
2024-04-18T03:02:27.680Z,47.37
2024-04-18T03:03:27.616Z,48.66
2024-04-18T03:04:27.627Z,48.82
2024-04-18T03:05:27.554Z,48.50
2024-04-18T03:06:27.578Z,53.66
2024-04-18T03:07:27.566Z,50.43
2024-04-18T03:08:27.532Z,48.18
2024-04-18T03:09:27.549Z,51.24
2024-04-18T03:10:27.538Z,52.85
2024-04-18T03:11:27.585Z,50.43
2024-04-18T03:12:27.719Z,50.27
2024-04-18T03:13:27.486Z,51.08
2024-04-18T03:14:27.470Z,49.15
2024-04-18T03:15:27.555Z,50.43
2024-04-18T03:16:27.464Z,52.85
2024-04-18T03:17:27.488Z,49.31
2024-04-18T03:18:27.502Z,50.76
2024-04-18T03:19:27.456Z,49.47
2024-04-18T03:20:27.421Z,49.15
2024-04-18T03:21:27.427Z,49.31
2024-04-18T03:22:27.446Z,50.27
2024-04-18T03:23:27.361Z,50.11
2024-04-18T03:24:27.382Z,50.27
2024-04-18T03:25:27.386Z,49.47
2024-04-18T03:26:27.350Z,52.69
2024-04-18T03:27:27.350Z,48.50
2024-04-18T03:28:27.365Z,49.47
2024-04-18T03:29:27.305Z,50.76
2024-04-18T03:30:27.351Z,56.07
2024-04-18T03:31:27.294Z,61.71
2024-04-18T03:32:27.409Z,48.82
2024-04-18T03:33:27.346Z,53.50
2024-04-18T03:34:27.265Z,48.98
2024-04-18T03:35:27.249Z,57.69
2024-04-18T03:36:27.313Z,53.50
2024-04-18T03:37:27.222Z,50.60
2024-04-18T03:38:27.211Z,53.33
2024-04-18T03:39:27.228Z,48.34
2024-04-18T03:40:27.227Z,51.56
2024-04-18T03:41:27.171Z,48.02
2024-04-18T03:42:27.244Z,50.27
2024-04-18T03:43:27.166Z,49.31
2024-04-18T03:44:27.168Z,49.79
2024-04-18T03:45:27.137Z,49.15
2024-04-18T03:46:27.124Z,57.20
2024-04-18T03:47:27.154Z,50.27
2024-04-18T03:48:27.210Z,49.95
2024-04-18T03:49:27.102Z,55.75
2024-04-18T03:50:27.095Z,48.98
2024-04-18T03:51:27.102Z,60.91
2024-04-18T03:52:27.062Z,47.37
2024-04-18T03:53:27.083Z,62.04
2024-04-18T03:54:27.094Z,50.60
2024-04-18T03:55:27.143Z,48.34
2024-04-18T03:56:27.051Z,54.14
2024-04-18T03:57:27.148Z,48.82
2024-04-18T03:58:27.015Z,49.47
2024-04-18T03:59:27.000Z,53.66
2024-04-18T04:00:27.063Z,49.63
2024-04-18T04:01:27.118Z,53.66
2024-04-18T04:02:27.055Z,49.15
2024-04-18T04:03:27.030Z,48.18
2024-04-18T04:04:27.071Z,49.79
2024-04-18T04:05:26.931Z,49.95
2024-04-18T04:06:26.942Z,49.15
2024-04-18T04:07:26.920Z,47.70
2024-04-18T04:08:26.931Z,48.34
2024-04-18T04:09:26.927Z,49.79
2024-04-18T04:10:26.868Z,48.98
2024-04-18T04:11:26.945Z,48.34
2024-04-18T04:12:26.879Z,47.86
2024-04-18T04:13:26.842Z,49.47
2024-04-18T04:14:26.840Z,62.04
2024-04-18T04:15:26.869Z,49.95
2024-04-18T04:16:26.846Z,48.34
2024-04-18T04:17:26.860Z,52.69
2024-04-18T04:18:26.864Z,57.36
2024-04-18T04:19:27.010Z,48.98
2024-04-18T04:20:26.775Z,48.82
2024-04-18T04:21:26.814Z,48.66
2024-04-18T04:22:27.500Z,48.66
2024-04-18T04:23:26.728Z,62.68
2024-04-18T04:24:26.763Z,48.82
2024-04-18T04:25:26.709Z,50.27
2024-04-18T04:26:26.723Z,50.43
2024-04-18T04:27:26.723Z,47.53
2024-04-18T04:28:26.688Z,52.85
2024-04-18T04:29:26.688Z,62.84
2024-04-18T04:30:26.732Z,47.53
2024-04-18T04:31:26.660Z,48.82
2024-04-18T04:32:26.741Z,58.65
2024-04-18T04:33:26.682Z,53.17
2024-04-18T04:34:26.615Z,48.50
2024-04-18T04:35:26.623Z,50.60
2024-04-18T04:36:26.632Z,51.40
2024-04-18T04:37:26.584Z,50.27
2024-04-18T04:38:26.575Z,50.43
2024-04-18T04:39:26.649Z,49.47
2024-04-18T04:40:26.574Z,48.66
2024-04-18T04:41:26.542Z,57.85
2024-04-18T04:42:26.591Z,53.01
2024-04-18T04:43:26.521Z,50.43
2024-04-18T04:44:26.515Z,54.62
2024-04-18T04:45:26.567Z,51.56
2024-04-18T04:46:26.490Z,51.56
2024-04-18T04:47:26.580Z,49.79
2024-04-18T04:48:26.557Z,51.08
2024-04-18T04:49:26.561Z,51.24
2024-04-18T04:50:26.470Z,51.72
2024-04-18T04:51:26.461Z,48.82
2024-04-18T04:52:26.429Z,47.05
2024-04-18T04:53:26.419Z,50.92
2024-04-18T04:54:26.435Z,49.47
2024-04-18T04:55:26.401Z,55.11
2024-04-18T04:56:26.385Z,49.47
2024-04-18T04:57:26.412Z,49.47
2024-04-18T04:58:26.367Z,53.17
2024-04-18T04:59:26.372Z,52.37
2024-04-18T05:00:26.381Z,52.85
2024-04-18T05:01:26.394Z,52.37
2024-04-18T05:02:26.338Z,49.79
2024-04-18T05:03:26.359Z,50.27
2024-04-18T05:04:26.348Z,50.60
2024-04-18T05:05:26.314Z,51.72
2024-04-18T05:06:26.308Z,56.40
2024-04-18T05:07:26.267Z,53.98
2024-04-18T05:08:26.282Z,56.07
2024-04-18T05:09:26.286Z,50.92
2024-04-18T05:10:26.243Z,51.24
2024-04-18T05:11:26.266Z,49.95
2024-04-18T05:12:26.276Z,48.82
2024-04-18T05:13:26.230Z,54.62
2024-04-18T05:14:26.198Z,48.66
2024-04-18T05:15:26.223Z,50.76
2024-04-18T05:16:26.568Z,49.79
2024-04-18T05:17:26.185Z,48.82
2024-04-18T05:18:26.225Z,51.40
2024-04-18T05:19:26.145Z,51.40
2024-04-18T05:20:26.135Z,49.63
2024-04-18T05:21:26.160Z,48.02
2024-04-18T05:22:26.122Z,51.24
2024-04-18T05:23:26.111Z,56.24
2024-04-18T05:24:26.143Z,51.88
2024-04-18T05:25:26.121Z,53.01
2024-04-18T05:26:26.074Z,49.95
2024-04-18T05:27:26.188Z,48.98
2024-04-18T05:28:26.066Z,58.17
2024-04-18T05:29:26.047Z,53.66
2024-04-18T05:30:26.103Z,47.37
2024-04-18T05:31:26.024Z,46.57
2024-04-18T05:32:26.062Z,46.73
2024-04-18T05:33:26.112Z,49.95
2024-04-18T05:34:25.984Z,47.53
2024-04-18T05:35:26.001Z,56.56
2024-04-18T05:36:26.021Z,46.25
2024-04-18T05:37:25.987Z,56.72
2024-04-18T05:38:25.937Z,48.82
2024-04-18T05:39:25.967Z,57.20
2024-04-18T05:40:25.923Z,52.85
2024-04-18T05:41:25.930Z,50.76
2024-04-18T05:42:25.986Z,47.70
2024-04-18T05:43:25.891Z,45.28
2024-04-18T05:44:25.880Z,47.37
2024-04-18T05:45:25.916Z,54.46
2024-04-18T05:46:25.882Z,49.95
2024-04-18T05:47:25.931Z,44.79
2024-04-18T05:48:25.883Z,48.82
2024-04-18T05:49:25.916Z,46.41
2024-04-18T05:50:25.841Z,45.92
2024-04-18T05:51:25.898Z,47.37
2024-04-18T05:52:25.823Z,47.70
2024-04-18T05:53:25.799Z,49.63
2024-04-18T05:54:25.813Z,46.89
2024-04-18T05:55:25.800Z,55.43
2024-04-18T05:56:25.752Z,48.02
2024-04-18T05:57:25.783Z,57.04
2024-04-18T05:58:25.737Z,54.62
2024-04-18T05:59:25.744Z,48.50
2024-04-18T06:00:25.772Z,53.01
2024-04-18T06:01:25.762Z,48.34
2024-04-18T06:02:25.749Z,51.24
2024-04-18T06:03:25.856Z,52.37
2024-04-18T06:04:25.751Z,49.95
2024-04-18T06:05:25.688Z,49.47
2024-04-18T06:06:25.682Z,56.72
2024-04-18T06:07:25.650Z,47.86
2024-04-18T06:08:25.631Z,47.86
2024-04-18T06:09:25.704Z,48.66
2024-04-18T06:10:25.610Z,47.86
2024-04-18T06:11:25.644Z,46.73
2024-04-18T06:12:25.632Z,53.17
2024-04-18T06:13:25.580Z,48.82
2024-04-18T06:14:25.581Z,48.02
2024-04-18T06:15:25.595Z,48.50
2024-04-18T06:16:25.575Z,47.70
2024-04-18T06:17:25.551Z,55.75
2024-04-18T06:18:25.569Z,54.62
2024-04-18T06:19:28.709Z,54.62
2024-04-18T06:20:25.509Z,50.92
2024-04-18T06:21:25.527Z,46.89
2024-04-18T06:22:25.502Z,48.34
2024-04-18T06:23:25.487Z,45.44
2024-04-18T06:24:25.463Z,48.34
2024-04-18T06:25:25.469Z,51.08
2024-04-18T06:26:25.451Z,49.79
2024-04-18T06:27:25.469Z,48.98
2024-04-18T06:28:25.437Z,46.73
2024-04-18T06:29:25.420Z,52.85
2024-04-18T06:30:25.420Z,47.37
2024-04-18T06:31:25.403Z,46.25
2024-04-18T06:32:25.431Z,49.95
2024-04-18T06:33:25.496Z,52.37
2024-04-18T06:34:25.396Z,56.88
2024-04-18T06:35:25.347Z,54.14
2024-04-18T06:36:25.367Z,52.53
2024-04-18T06:37:25.338Z,49.15
2024-04-18T06:38:25.363Z,48.98
2024-04-18T06:39:25.380Z,46.25
2024-04-18T06:40:25.289Z,52.53
2024-04-18T06:41:25.289Z,55.59
2024-04-18T06:42:25.337Z,48.82
2024-04-18T06:43:25.347Z,47.37
2024-04-18T06:44:25.260Z,45.44
2024-04-18T06:45:25.275Z,49.15
2024-04-18T06:46:25.226Z,56.24
2024-04-18T06:47:25.260Z,45.60
2024-04-18T06:48:25.266Z,49.47
2024-04-18T06:49:25.199Z,48.50
2024-04-18T06:50:26.987Z,46.25
2024-04-18T06:51:25.217Z,46.08
2024-04-18T06:52:25.190Z,48.98
2024-04-18T06:53:25.169Z,52.05
2024-04-18T06:54:25.158Z,47.21
2024-04-18T06:55:25.146Z,49.95
2024-04-18T06:56:25.137Z,50.43
2024-04-18T06:57:25.148Z,47.86
2024-04-18T06:58:25.099Z,44.96
2024-04-18T06:59:25.089Z,56.56
2024-04-18T07:00:25.126Z,45.28
2024-04-18T07:01:25.148Z,46.73
2024-04-18T07:02:25.063Z,48.34
2024-04-18T07:03:25.200Z,47.86
2024-04-18T07:04:25.212Z,47.70
2024-04-18T07:05:25.061Z,45.76
2024-04-18T07:06:25.058Z,49.79
2024-04-18T07:07:25.061Z,58.49
2024-04-18T07:08:25.036Z,64.29
2024-04-18T07:09:25.006Z,49.15
2024-04-18T07:10:25.044Z,54.79
2024-04-18T07:11:25.085Z,51.08
2024-04-18T07:12:24.983Z,49.63
2024-04-18T07:13:24.942Z,47.53
2024-04-18T07:14:24.950Z,50.11
2024-04-18T07:15:25.026Z,55.43
2024-04-18T07:16:24.915Z,48.02
2024-04-18T07:17:25.071Z,48.66
2024-04-18T07:18:25.018Z,46.89
2024-04-18T07:19:24.951Z,47.86
2024-04-18T07:20:24.897Z,53.17
2024-04-18T07:21:24.917Z,48.98
2024-04-18T07:22:24.855Z,46.41
2024-04-18T07:23:24.875Z,44.96
2024-04-18T07:24:24.866Z,48.34
2024-04-18T07:25:24.822Z,49.47
2024-04-18T07:26:24.822Z,50.43
2024-04-18T07:27:24.816Z,53.66
2024-04-18T07:28:24.902Z,46.41
2024-04-18T07:29:24.794Z,49.15
2024-04-18T07:30:24.783Z,46.73
2024-04-18T07:31:24.769Z,46.73
2024-04-18T07:32:24.849Z,56.88
2024-04-18T07:33:24.924Z,48.34
2024-04-18T07:34:24.780Z,48.18
2024-04-18T07:35:24.721Z,54.62
2024-04-18T07:36:24.729Z,56.24
2024-04-18T07:37:24.697Z,45.92
2024-04-18T07:38:24.701Z,49.63
2024-04-18T07:39:24.698Z,62.36
2024-04-18T07:40:24.673Z,47.05
2024-04-18T07:41:24.647Z,49.15
2024-04-18T07:42:24.643Z,48.18
2024-04-18T07:43:24.654Z,47.53
2024-04-18T07:44:25.238Z,45.76
2024-04-18T07:45:24.627Z,47.21
2024-04-18T07:46:24.606Z,47.05
2024-04-18T07:47:24.642Z,45.76
2024-04-18T07:48:24.718Z,45.60
2024-04-18T07:49:24.591Z,49.95
2024-04-18T07:50:24.549Z,45.92
2024-04-18T07:51:24.565Z,46.25
2024-04-18T07:52:24.636Z,47.05
2024-04-18T07:53:24.527Z,49.79
2024-04-18T07:54:24.544Z,46.25
2024-04-18T07:55:24.506Z,45.76
2024-04-18T07:56:24.970Z,48.18
2024-04-18T07:57:24.907Z,49.15
2024-04-18T07:58:24.964Z,46.41
2024-04-18T07:59:25.198Z,53.66
2024-04-18T08:00:25.426Z,45.76
2024-04-18T08:01:25.853Z,45.76
2024-04-18T08:02:25.875Z,45.60
2024-04-18T08:03:26.314Z,46.08
2024-04-18T08:04:45.368Z,48.82
2024-04-18T08:05:26.639Z,63.65
2024-04-18T08:06:26.961Z,47.05
2024-04-18T08:07:28.399Z,45.76
2024-04-18T08:08:27.435Z,49.31
2024-04-18T08:09:27.676Z,48.02
2024-04-18T08:10:28.613Z,46.25
2024-04-18T08:11:52.184Z,47.70
2024-04-18T08:12:28.098Z,47.37
2024-04-18T08:13:27.712Z,46.73
2024-04-18T08:14:27.696Z,60.91
2024-04-18T08:16:24.408Z,48.66
2024-04-18T08:17:24.429Z,48.82
2024-04-18T08:18:24.290Z,52.53
2024-04-18T08:19:24.237Z,49.15
2024-04-18T08:20:24.259Z,48.50
2024-04-18T08:21:24.243Z,56.88
2024-04-18T08:22:24.207Z,45.28
2024-04-18T08:23:24.204Z,54.62
2024-04-18T08:24:24.254Z,45.12
2024-04-18T08:25:24.191Z,45.44
2024-04-18T08:26:24.171Z,48.02
2024-04-18T08:27:24.198Z,44.96
2024-04-18T08:28:24.149Z,45.60
2024-04-18T08:29:24.164Z,55.75
2024-04-18T08:30:24.182Z,47.86
2024-04-18T08:31:24.162Z,45.44
2024-04-18T08:32:24.113Z,44.63
2024-04-18T08:33:24.117Z,46.73
2024-04-18T08:34:24.796Z,52.69
2024-04-18T08:35:24.063Z,51.72
2024-04-18T08:36:24.111Z,45.60
2024-04-18T08:37:24.043Z,45.76
2024-04-18T08:38:24.038Z,46.89
2024-04-18T08:39:24.095Z,47.86
2024-04-18T08:40:24.027Z,46.25
2024-04-18T08:41:23.999Z,46.89
2024-04-18T08:42:24.104Z,50.60
2024-04-18T08:43:23.988Z,45.28
2024-04-18T08:44:23.988Z,44.31
2024-04-18T08:45:23.983Z,45.60
2024-04-18T08:46:23.971Z,48.50
2024-04-18T08:47:23.973Z,46.41
2024-04-18T08:48:24.166Z,46.08
2024-04-18T08:49:24.030Z,45.60
2024-04-18T08:50:23.908Z,46.41
2024-04-18T08:51:23.949Z,53.82
2024-04-18T08:52:23.909Z,49.15
2024-04-18T08:53:23.888Z,45.28
2024-04-18T08:54:23.906Z,85.08
2024-04-18T08:55:23.873Z,74.60
2024-04-18T08:56:23.837Z,78.31
2024-04-18T08:57:23.882Z,84.92
2024-04-18T08:58:23.841Z,45.60
2024-04-18T08:59:23.870Z,73.64
2024-04-18T09:00:23.827Z,74.12
2024-04-18T09:01:23.789Z,79.28
2024-04-18T09:02:23.856Z,45.28
2024-04-18T09:03:23.784Z,79.28
2024-04-18T09:04:23.866Z,75.41
2024-04-18T09:05:23.859Z,77.83
2024-04-18T09:06:23.760Z,74.44
2024-04-18T09:07:23.757Z,77.02
2024-04-18T09:08:23.717Z,82.50
2024-04-18T09:09:23.758Z,49.79
2024-04-18T09:10:23.730Z,44.47
2024-04-18T09:11:23.750Z,46.41
2024-04-18T09:12:23.707Z,50.76
2024-04-18T09:13:24.362Z,46.25
2024-04-18T09:14:23.650Z,44.79
2024-04-18T09:15:23.831Z,48.34
2024-04-18T09:16:23.656Z,48.66
2024-04-18T09:17:23.670Z,67.03
2024-04-18T09:18:23.696Z,67.35
2024-04-18T09:19:23.609Z,62.52
2024-04-18T09:20:23.601Z,67.03
2024-04-18T09:21:23.650Z,64.94
2024-04-18T09:22:23.563Z,65.10
2024-04-18T09:23:23.555Z,67.84
2024-04-18T09:24:23.581Z,66.39
2024-04-18T09:25:23.546Z,67.03
2024-04-18T09:26:23.521Z,66.71
2024-04-18T09:27:23.569Z,65.90
2024-04-18T09:28:23.512Z,62.04
2024-04-18T09:29:23.484Z,65.90
2024-04-18T09:30:23.543Z,63.97
2024-04-18T09:31:30.441Z,64.45
2024-04-18T09:32:23.530Z,64.61
2024-04-18T09:33:23.501Z,65.90
2024-04-18T09:34:23.627Z,65.90
2024-04-18T09:35:23.513Z,64.29
2024-04-18T09:36:23.521Z,64.45
2024-04-18T09:37:23.405Z,65.74
2024-04-18T09:38:23.389Z,62.52
2024-04-18T09:39:23.459Z,64.78
2024-04-18T09:40:23.371Z,64.13
2024-04-18T09:41:23.361Z,63.81
2024-04-18T09:42:23.389Z,65.10
2024-04-18T09:43:23.336Z,47.70
2024-04-18T09:44:25.372Z,51.40
2024-04-18T09:45:23.548Z,63.81
2024-04-18T09:46:23.297Z,63.49
2024-04-18T09:47:23.348Z,63.81
2024-04-18T09:48:23.459Z,65.74
2024-04-18T09:49:23.501Z,69.45
2024-04-18T09:50:23.274Z,66.23
2024-04-18T09:51:23.287Z,65.90
2024-04-18T09:52:23.366Z,63.49
2024-04-18T09:53:23.252Z,65.90
2024-04-18T09:54:23.277Z,66.39
2024-04-18T09:55:25.694Z,66.39
2024-04-18T09:56:23.220Z,65.10
2024-04-18T09:57:23.258Z,63.00
2024-04-18T09:58:23.190Z,62.68
2024-04-18T09:59:23.166Z,48.50
2024-04-18T10:00:23.194Z,63.33
2024-04-18T10:01:23.188Z,63.49
2024-04-18T10:02:23.199Z,65.74
2024-04-18T10:03:23.228Z,68.00
2024-04-18T10:04:23.206Z,66.87
2024-04-18T10:05:23.103Z,63.81
2024-04-18T10:06:23.191Z,63.00
2024-04-18T10:07:23.092Z,66.06
2024-04-18T10:08:23.076Z,62.52
2024-04-18T10:09:23.114Z,63.49
2024-04-18T10:10:23.050Z,65.10
2024-04-18T10:11:23.077Z,63.97
2024-04-18T10:12:23.148Z,66.39
2024-04-18T10:13:23.175Z,64.61
2024-04-18T10:14:23.006Z,50.76
2024-04-18T10:15:23.008Z,65.26
2024-04-18T10:16:22.998Z,69.61
2024-04-18T10:17:23.057Z,64.29
2024-04-18T10:18:23.089Z,63.81
2024-04-18T10:19:23.095Z,66.39
2024-04-18T10:20:22.952Z,61.39
2024-04-18T10:21:32.056Z,64.61
2024-04-18T10:22:29.360Z,64.61
2024-04-18T10:23:22.902Z,63.00
2024-04-18T10:24:22.943Z,67.35
2024-04-18T10:25:22.896Z,60.75
2024-04-18T10:26:22.877Z,63.00
2024-04-18T10:27:22.960Z,65.26
2024-04-18T10:28:22.849Z,64.61
2024-04-18T10:29:22.834Z,70.90
2024-04-18T10:30:22.866Z,64.45
2024-04-18T10:31:22.830Z,63.81
2024-04-18T10:32:22.860Z,46.89
2024-04-18T10:33:22.877Z,63.81
2024-04-18T10:34:22.808Z,64.78
2024-04-18T10:35:22.777Z,61.39
2024-04-18T10:36:22.788Z,63.16
2024-04-18T10:37:22.758Z,64.78
2024-04-18T10:38:22.740Z,64.78
2024-04-18T10:39:22.760Z,62.04
2024-04-18T10:40:22.736Z,65.10
2024-04-18T10:41:22.700Z,63.00
2024-04-18T10:42:22.784Z,63.97
2024-04-18T10:43:22.713Z,61.39
2024-04-18T10:44:22.701Z,63.97
2024-04-18T10:45:22.701Z,62.04
2024-04-18T10:46:22.662Z,66.55
2024-04-18T10:47:22.655Z,69.29
2024-04-18T10:48:22.835Z,66.71
2024-04-18T10:49:22.724Z,53.82
2024-04-18T10:50:22.618Z,48.98
2024-04-18T10:51:22.621Z,47.70
2024-04-18T10:52:22.583Z,44.79
2024-04-18T10:53:22.586Z,45.28
2024-04-18T10:54:22.631Z,44.96
2024-04-18T10:55:22.567Z,47.53
2024-04-18T10:56:22.553Z,44.79
2024-04-18T10:57:22.556Z,45.92
2024-04-18T10:58:22.562Z,43.34
2024-04-18T10:59:22.529Z,61.07
2024-04-18T11:00:22.534Z,44.31
2024-04-18T11:01:22.704Z,65.10
2024-04-18T11:02:22.507Z,43.67
2024-04-18T11:03:22.535Z,59.94
2024-04-18T11:04:22.476Z,43.18
2024-04-18T11:05:22.453Z,44.15
2024-04-18T11:06:22.486Z,50.60
2024-04-18T11:07:22.429Z,44.31
2024-04-18T11:08:22.461Z,51.40
2024-04-18T11:09:22.425Z,54.62
2024-04-18T11:10:22.396Z,47.37
2024-04-18T11:11:22.387Z,44.15
2024-04-18T11:12:22.414Z,59.78
2024-04-18T11:13:22.388Z,43.18
2024-04-18T11:14:22.347Z,50.11
2024-04-18T11:15:22.351Z,44.47
2024-04-18T11:16:22.336Z,43.99
2024-04-18T11:17:22.328Z,43.51
2024-04-18T11:18:22.439Z,47.86
2024-04-18T11:19:22.392Z,45.76
2024-04-18T11:20:22.292Z,47.05
2024-04-18T11:21:22.292Z,44.79
2024-04-18T11:22:22.302Z,44.47
2024-04-18T11:23:24.519Z,44.79
2024-04-18T11:24:22.255Z,45.28
2024-04-18T11:25:22.277Z,44.96
2024-04-18T11:26:22.230Z,47.37
2024-04-18T11:27:22.256Z,44.63
2024-04-18T11:28:22.251Z,46.41
2024-04-18T11:29:22.184Z,46.73
2024-04-18T11:30:22.209Z,44.96
2024-04-18T11:31:22.260Z,50.11
2024-04-18T11:32:22.343Z,45.60
2024-04-18T11:33:22.312Z,44.63
2024-04-18T11:34:22.141Z,47.37
2024-04-18T11:35:22.125Z,51.56
2024-04-18T11:36:22.170Z,48.34
2024-04-18T11:37:22.088Z,46.25
2024-04-18T11:38:22.109Z,46.25
2024-04-18T11:39:22.147Z,48.66
2024-04-18T11:40:22.073Z,56.72
2024-04-18T11:41:22.085Z,45.44
2024-04-18T11:42:22.073Z,65.10
2024-04-18T11:43:22.027Z,46.57
2024-04-18T11:44:22.032Z,48.02
2024-04-18T11:45:22.090Z,45.60
2024-04-18T11:46:22.025Z,45.60
2024-04-18T11:47:22.067Z,46.57
2024-04-18T11:48:22.127Z,46.08
2024-04-18T11:49:22.035Z,42.70
2024-04-18T11:50:22.055Z,48.50
2024-04-18T11:51:22.037Z,45.60
2024-04-18T11:52:21.931Z,46.73
2024-04-18T11:53:21.947Z,41.73
2024-04-18T11:54:22.070Z,42.38
2024-04-18T11:55:21.927Z,41.89
2024-04-18T11:56:21.884Z,47.05
2024-04-18T11:57:21.914Z,55.43
2024-04-18T11:58:21.874Z,49.95
2024-04-18T11:59:21.912Z,43.51
2024-04-18T12:00:21.913Z,45.12
2024-04-18T12:01:21.857Z,48.18
2024-04-18T12:02:22.159Z,45.76
2024-04-18T12:03:21.945Z,54.46
2024-04-18T12:04:21.975Z,49.63
2024-04-18T12:05:21.812Z,58.33
2024-04-18T12:06:21.810Z,55.27
2024-04-18T12:07:21.788Z,39.80
2024-04-18T12:08:21.806Z,44.63
2024-04-18T12:09:21.789Z,43.34
2024-04-18T12:10:21.742Z,40.44
2024-04-18T12:11:21.823Z,40.93
2024-04-18T12:12:21.809Z,39.64
2024-04-18T12:13:21.720Z,40.12
2024-04-18T12:14:21.723Z,46.08
2024-04-18T12:15:21.706Z,46.41
2024-04-18T12:16:21.710Z,40.44
2024-04-18T12:17:21.669Z,41.41
2024-04-18T12:18:21.733Z,48.18
2024-04-18T12:19:21.669Z,52.85
2024-04-18T12:20:21.659Z,50.60
2024-04-18T12:21:21.644Z,45.12
2024-04-18T12:22:21.602Z,40.93
2024-04-18T12:23:21.622Z,38.19
2024-04-18T12:24:21.696Z,39.96
2024-04-18T12:25:21.592Z,52.85
2024-04-18T12:26:21.567Z,43.51
2024-04-18T12:27:21.600Z,39.48
2024-04-18T12:28:21.575Z,38.99
2024-04-18T12:29:21.540Z,40.28
2024-04-18T12:30:21.573Z,41.41
2024-04-18T12:31:21.522Z,51.72
2024-04-18T12:32:21.548Z,40.77
2024-04-18T12:33:21.721Z,38.51
2024-04-18T12:34:21.516Z,41.41
2024-04-18T12:35:21.493Z,42.54
2024-04-18T12:36:21.463Z,41.89
2024-04-18T12:37:21.486Z,56.24
2024-04-18T12:38:21.439Z,46.25
2024-04-18T12:39:21.456Z,44.63
2024-04-18T12:40:21.407Z,40.93
2024-04-18T12:41:21.456Z,44.63
2024-04-18T12:42:21.426Z,44.79
2024-04-18T12:43:21.398Z,40.44
2024-04-18T12:44:21.393Z,38.35
2024-04-18T12:45:21.379Z,42.70
2024-04-18T12:46:23.901Z,44.15
2024-04-18T12:47:21.371Z,46.89
2024-04-18T12:48:21.550Z,46.89
2024-04-18T12:49:21.441Z,53.82
2024-04-18T12:50:21.303Z,59.78
2024-04-18T12:51:21.364Z,47.86
2024-04-18T12:52:21.295Z,45.60
2024-04-18T12:53:21.289Z,44.63